createdAt,value
2019-06-27T00:01:26.180Z,99.90
2019-06-27T00:03:57.419Z,99.90
2019-06-27T00:06:26.846Z,99.90
2019-06-27T00:09:02.401Z,99.90
2019-06-27T00:11:31.573Z,99.90
2019-06-27T00:14:13.575Z,99.90
2019-06-27T00:16:48.958Z,99.90
2019-06-27T00:19:25.154Z,99.90
2019-06-27T00:21:54.255Z,99.90
2019-06-27T00:24:30.015Z,99.90
2019-06-27T00:26:59.196Z,99.90
2019-06-27T00:29:34.512Z,99.90
2019-06-27T00:32:05.852Z,99.90
2019-06-27T00:34:41.333Z,99.90
2019-06-27T00:37:10.440Z,99.90
2019-06-27T00:39:50.564Z,99.90
2019-06-27T00:42:19.948Z,99.90
2019-06-27T00:44:55.255Z,99.90
2019-06-27T00:47:24.372Z,99.90
2019-06-27T00:50:00.084Z,99.90
2019-06-27T00:52:29.295Z,99.90
2019-06-27T00:54:58.303Z,99.90
2019-06-27T00:57:33.699Z,99.90
2019-06-27T01:00:02.855Z,99.90
2019-06-27T01:02:38.399Z,99.90
2019-06-27T01:05:08.119Z,99.90
2019-06-27T01:07:44.036Z,99.90
2019-06-27T01:10:13.586Z,99.90
2019-06-27T01:12:50.011Z,99.90
2019-06-27T01:15:32.540Z,99.90
2019-06-27T01:18:08.756Z,99.90
2019-06-27T01:20:37.913Z,99.90
2019-06-27T01:23:07.056Z,99.90
2019-06-27T01:25:42.295Z,99.90
2019-06-27T01:28:12.432Z,99.90
2019-06-27T01:30:47.940Z,99.90
2019-06-27T01:33:17.107Z,99.90
2019-06-27T01:35:53.155Z,99.90
2019-06-27T01:38:22.293Z,99.90
2019-06-27T01:40:57.839Z,99.90
2019-06-27T01:43:26.980Z,99.90
2019-06-27T01:46:03.791Z,99.90
2019-06-27T01:48:33.023Z,99.90
2019-06-27T01:51:09.307Z,99.90
2019-06-27T01:53:38.425Z,99.90
2019-06-27T01:56:07.547Z,99.90
2019-06-27T01:58:42.745Z,99.90
2019-06-27T02:01:11.889Z,99.90
2019-06-27T02:03:47.484Z,99.90
2019-06-27T02:06:16.703Z,99.90
2019-06-27T02:08:51.994Z,99.90
2019-06-27T02:11:21.184Z,99.90
2019-06-27T02:14:10.429Z,99.90
2019-06-27T02:16:45.882Z,99.90
2019-06-27T02:19:22.081Z,99.90
2019-06-27T02:21:51.231Z,99.90
2019-06-27T02:24:20.460Z,99.90
2019-06-27T02:26:55.850Z,99.90
2019-06-27T02:29:25.015Z,99.90
2019-06-27T02:32:01.182Z,99.90
2019-06-27T02:34:30.402Z,99.90
2019-06-27T02:37:06.435Z,99.90
2019-06-27T02:39:35.554Z,99.90
2019-06-27T02:42:14.015Z,99.90
2019-06-27T02:44:43.202Z,99.90
2019-06-27T02:47:18.690Z,99.90
2019-06-27T02:49:50.144Z,99.90
2019-06-27T02:52:25.430Z,99.90
2019-06-27T02:54:56.928Z,99.90
2019-06-27T02:57:36.493Z,99.90
2019-06-27T03:00:05.880Z,99.90
2019-06-27T03:02:35.016Z,99.90
2019-06-27T03:05:11.294Z,99.90
2019-06-27T03:07:40.421Z,99.90
2019-06-27T03:10:19.356Z,99.90
2019-06-27T03:12:48.718Z,99.90
2019-06-27T03:15:36.726Z,99.90
2019-06-27T03:18:05.888Z,99.90
2019-06-27T03:20:42.492Z,99.90
2019-06-27T03:23:11.666Z,99.90
2019-06-27T03:25:49.879Z,99.90
2019-06-27T03:28:19.267Z,99.90
2019-06-27T03:30:50.657Z,99.90
2019-06-27T03:33:29.916Z,99.90
2019-06-27T03:35:59.142Z,99.90
2019-06-27T03:38:34.518Z,99.90
2019-06-27T03:41:03.792Z,99.90
2019-06-27T03:43:40.656Z,99.90
2019-06-27T03:46:09.790Z,99.90
2019-06-27T03:48:47.089Z,99.90
2019-06-27T03:51:16.301Z,99.90
2019-06-27T03:53:52.243Z,99.90
2019-06-27T03:56:21.455Z,99.90
2019-06-27T03:59:06.355Z,99.90
2019-06-27T04:01:28.339Z,99.90
2019-06-27T04:03:58.342Z,99.90
2019-06-27T04:06:34.271Z,99.90
2019-06-27T04:09:03.501Z,99.90
2019-06-27T04:11:39.440Z,99.90
2019-06-27T04:14:28.223Z,99.90
2019-06-27T04:17:10.057Z,99.90
2019-06-27T04:19:40.531Z,99.90
2019-06-27T04:22:17.568Z,99.90
2019-06-27T04:24:46.607Z,99.90
2019-06-27T04:27:15.777Z,99.90
2019-06-27T04:29:51.610Z,99.90
2019-06-27T04:32:20.753Z,99.90
2019-06-27T04:34:56.683Z,99.90
2019-06-27T04:37:25.794Z,99.90
2019-06-27T04:40:01.114Z,99.90
2019-06-27T04:42:30.290Z,99.90
2019-06-27T04:45:06.204Z,99.90
2019-06-27T04:47:35.371Z,99.90
2019-06-27T04:50:04.709Z,99.90
2019-06-27T04:52:40.220Z,99.90
2019-06-27T04:55:09.409Z,99.90
2019-06-27T04:57:45.563Z,99.90
2019-06-27T05:00:21.948Z,99.90
2019-06-27T05:02:58.035Z,99.90
2019-06-27T05:05:27.195Z,99.90
2019-06-27T05:07:56.345Z,99.90
2019-06-27T05:10:32.037Z,99.90
2019-06-27T05:13:01.313Z,99.90
2019-06-27T05:15:43.320Z,99.90
2019-06-27T05:18:19.543Z,99.90
2019-06-27T05:20:55.227Z,99.90
2019-06-27T05:23:25.763Z,99.90
2019-06-27T05:26:01.246Z,99.90
2019-06-27T05:28:30.485Z,99.90
2019-06-27T05:30:59.735Z,99.90
2019-06-27T05:33:35.386Z,99.90
2019-06-27T05:36:04.606Z,99.90
2019-06-27T05:38:40.091Z,99.90
2019-06-27T05:41:09.203Z,99.90
2019-06-27T05:43:44.521Z,99.90
2019-06-27T05:46:13.897Z,99.90
2019-06-27T05:48:49.451Z,99.90
2019-06-27T05:51:18.745Z,99.90
2019-06-27T05:53:54.818Z,99.90
2019-06-27T05:56:23.947Z,99.90
2019-06-27T05:58:56.813Z,99.90
2019-06-27T06:01:33.170Z,99.90
2019-06-27T06:04:02.331Z,99.90
2019-06-27T06:06:39.548Z,99.90
2019-06-27T06:09:08.698Z,99.90
2019-06-27T06:11:44.533Z,99.90
2019-06-27T06:14:13.689Z,99.90
2019-06-27T06:17:02.656Z,99.90
2019-06-27T06:19:32.835Z,99.90
2019-06-27T06:22:02.010Z,99.90
2019-06-27T06:24:37.468Z,99.90
2019-06-27T06:27:06.602Z,99.90
2019-06-27T06:29:43.035Z,99.90
2019-06-27T06:32:13.559Z,99.90
2019-06-27T06:34:49.710Z,99.90
2019-06-27T06:37:19.008Z,99.90
2019-06-27T06:39:55.300Z,99.90
2019-06-27T06:42:24.566Z,99.90
2019-06-27T06:45:00.097Z,99.90
2019-06-27T06:47:30.390Z,99.90
2019-06-27T06:49:59.588Z,99.90
2019-06-27T06:52:35.705Z,99.90
2019-06-27T06:55:05.292Z,99.90
2019-06-27T06:57:40.656Z,99.90
2019-06-27T07:00:11.846Z,99.90
2019-06-27T07:02:48.128Z,99.90
2019-06-27T07:05:18.865Z,99.90
2019-06-27T07:07:54.434Z,99.90
2019-06-27T07:10:23.915Z,99.90
2019-06-27T07:12:53.048Z,99.90
2019-06-27T07:15:28.440Z,99.90
2019-06-27T07:18:04.602Z,99.90
2019-06-27T07:20:40.673Z,99.90
2019-06-27T07:23:12.658Z,99.90
2019-06-27T07:25:48.276Z,99.90
2019-06-27T07:28:17.379Z,99.90
2019-06-27T07:30:47.023Z,99.90
2019-06-27T07:33:22.470Z,99.90
2019-06-27T07:35:51.789Z,99.90
2019-06-27T07:38:27.890Z,99.90
2019-06-27T07:40:57.030Z,99.90
2019-06-27T07:46:25.674Z,99.90
2019-06-27T07:49:00.601Z,99.90
2019-06-27T07:51:31.183Z,99.90
2019-06-27T07:54:07.369Z,99.90
2019-06-27T07:56:36.575Z,99.90
2019-06-27T07:59:12.248Z,99.90
2019-06-27T08:01:41.342Z,99.90
2019-06-27T08:04:10.746Z,99.90
2019-06-27T08:06:46.923Z,99.90
2019-06-27T08:09:22.472Z,99.90
2019-06-27T08:11:51.742Z,99.90
2019-06-27T08:14:21.169Z,99.90
2019-06-27T08:17:04.087Z,99.90
2019-06-27T08:19:39.844Z,99.90
2019-06-27T08:22:15.499Z,99.90
2019-06-27T08:24:44.680Z,99.90
2019-06-27T08:27:20.626Z,99.90
2019-06-27T08:29:49.818Z,99.90
2019-06-27T08:32:27.135Z,99.90
2019-06-27T08:34:59.372Z,99.90
2019-06-27T08:37:37.154Z,99.90
2019-06-27T08:40:06.680Z,99.90
2019-06-27T08:42:35.887Z,99.90
2019-06-27T08:45:12.271Z,99.90
2019-06-27T08:47:43.775Z,99.90
2019-06-27T08:50:20.123Z,99.90
2019-06-27T08:52:50.409Z,99.90
2019-06-27T08:55:26.155Z,99.70
2019-06-27T08:57:55.361Z,98.90
2019-06-27T09:00:24.514Z,98.60
2019-06-27T09:03:03.479Z,98.60
2019-06-27T09:05:32.729Z,99.20
2019-06-27T09:08:08.955Z,99.60
2019-06-27T09:10:40.455Z,99.80
2019-06-27T09:13:18.189Z,99.90
2019-06-27T09:15:47.357Z,99.90
2019-06-27T09:18:29.847Z,99.70
2019-06-27T09:21:05.295Z,99.00
2019-06-27T09:23:41.555Z,97.00
2019-06-27T09:26:10.708Z,95.50
2019-06-27T09:31:34.253Z,96.20
2019-06-27T09:34:13.051Z,96.00
2019-06-27T09:36:42.198Z,94.60
2019-06-27T09:39:14.447Z,94.70
2019-06-27T09:41:49.950Z,93.60
2019-06-27T09:44:26.493Z,91.60
2019-06-27T09:46:55.579Z,92.80
2019-06-27T09:49:24.803Z,93.60
2019-06-27T09:52:00.643Z,92.30
2019-06-27T09:54:29.903Z,91.00
2019-06-27T09:57:25.786Z,92.00
2019-06-27T09:59:55.139Z,91.40
2019-06-27T10:02:40.923Z,91.00
2019-06-27T10:05:01.751Z,89.90
2019-06-27T10:07:31.048Z,89.30
2019-06-27T10:10:06.429Z,85.00
2019-06-27T10:12:42.490Z,83.70
2019-06-27T10:15:13.140Z,84.00
2019-06-27T10:17:49.234Z,86.70
2019-06-27T10:20:31.775Z,82.90
2019-06-27T10:23:28.537Z,83.50
2019-06-27T10:26:04.651Z,85.20
2019-06-27T10:28:35.304Z,78.50
2019-06-27T10:31:11.439Z,79.50
2019-06-27T10:33:40.639Z,80.60
2019-06-27T10:36:16.630Z,78.00
2019-06-27T10:38:45.853Z,74.90
2019-06-27T10:41:22.060Z,74.50
2019-06-27T10:43:51.482Z,75.10
2019-06-27T10:46:20.754Z,77.00
2019-06-27T10:48:55.970Z,75.20
2019-06-27T10:51:25.096Z,76.10
2019-06-27T10:54:01.068Z,70.40
2019-06-27T10:56:30.292Z,69.40
2019-06-27T10:59:08.278Z,68.20
2019-06-27T11:01:37.411Z,68.20
2019-06-27T11:04:15.162Z,68.30
2019-06-27T11:06:45.607Z,66.80
2019-06-27T11:09:14.902Z,67.10
2019-06-27T11:11:50.615Z,66.10
2019-06-27T11:14:19.972Z,62.40
2019-06-27T11:17:03.864Z,61.40
2019-06-27T11:19:51.867Z,64.60
2019-06-27T11:22:16.339Z,66.80
2019-06-27T11:24:45.438Z,69.50
2019-06-27T11:27:21.481Z,70.00
2019-06-27T11:29:50.690Z,70.70
2019-06-27T11:32:26.342Z,72.00
2019-06-27T11:34:55.579Z,63.60
2019-06-27T11:37:31.470Z,64.10
2019-06-27T11:40:00.679Z,64.00
2019-06-27T11:42:35.890Z,67.50
2019-06-27T11:45:05.651Z,66.80
2019-06-27T11:47:34.870Z,68.60
2019-06-27T11:50:10.408Z,69.20
2019-06-27T11:52:39.485Z,68.90
2019-06-27T11:55:15.273Z,65.80
2019-06-27T11:57:45.617Z,66.20
2019-06-27T12:00:21.456Z,68.70
2019-06-27T12:02:50.694Z,68.60
2019-06-27T12:05:19.887Z,67.30
2019-06-27T12:07:55.755Z,67.10
2019-06-27T12:10:25.688Z,66.90
2019-06-27T12:13:01.206Z,66.40
2019-06-27T12:15:32.452Z,66.20
2019-06-27T12:18:14.873Z,66.60
2019-06-27T12:20:50.509Z,65.20
2019-06-27T12:23:26.549Z,64.10
2019-06-27T12:25:55.786Z,66.10
2019-06-27T12:28:31.102Z,63.80
2019-06-27T12:31:00.277Z,63.50
2019-06-27T12:33:35.598Z,65.00
2019-06-27T12:36:04.718Z,65.60
2019-06-27T12:38:40.384Z,64.70
2019-06-27T12:41:09.562Z,65.00
2019-06-27T12:43:45.218Z,65.00
2019-06-27T12:46:14.339Z,63.80
2019-06-27T12:48:43.628Z,63.60
2019-06-27T12:51:19.263Z,61.70
2019-06-27T12:53:48.567Z,62.60
2019-06-27T12:56:24.206Z,63.60
2019-06-27T12:58:53.449Z,62.50
2019-06-27T13:01:29.853Z,61.10
2019-06-27T13:03:59.097Z,61.90
2019-06-27T13:06:35.006Z,61.50
2019-06-27T13:09:05.360Z,62.50
2019-06-27T13:11:42.048Z,59.60
2019-06-27T13:14:15.478Z,59.40
2019-06-27T13:16:58.655Z,60.40
2019-06-27T13:19:30.947Z,61.10
2019-06-27T13:22:12.547Z,61.60
2019-06-27T13:24:41.754Z,61.60
2019-06-27T13:27:11.091Z,58.30
2019-06-27T13:29:47.390Z,59.70
2019-06-27T13:32:16.622Z,59.50
2019-06-27T13:34:52.984Z,60.70
2019-06-27T13:37:22.201Z,60.80
2019-06-27T13:39:58.405Z,60.50
2019-06-27T13:42:29.246Z,60.50
2019-06-27T13:45:05.160Z,60.90
2019-06-27T13:47:40.679Z,58.50
2019-06-27T13:50:16.590Z,58.60
2019-06-27T13:52:47.809Z,59.50
2019-06-27T13:55:26.203Z,59.60
2019-06-27T13:57:57.613Z,58.90
2019-06-27T14:00:52.170Z,58.40
2019-06-27T14:03:21.450Z,57.70
2019-06-27T14:05:59.699Z,58.90
2019-06-27T14:08:29.097Z,60.10
2019-06-27T14:11:11.933Z,59.30
2019-06-27T14:13:42.460Z,59.10
2019-06-27T14:16:11.696Z,59.50
2019-06-27T14:18:47.677Z,59.80
2019-06-27T14:21:26.617Z,60.50
2019-06-27T14:24:08.283Z,59.20
2019-06-27T14:26:37.793Z,57.90
2019-06-27T14:29:13.581Z,58.50
2019-06-27T14:31:42.978Z,57.90
2019-06-27T14:34:38.096Z,58.30
2019-06-27T14:37:08.765Z,57.90
2019-06-27T14:39:44.595Z,57.80
2019-06-27T14:42:15.808Z,57.20
2019-06-27T14:44:51.039Z,57.40
2019-06-27T14:50:16.849Z,58.90
2019-06-27T14:52:46.085Z,58.00
2019-06-27T14:55:22.357Z,57.20
2019-06-27T14:57:53.516Z,57.90
2019-06-27T15:00:32.488Z,58.20
2019-06-27T15:03:02.765Z,58.60
2019-06-27T15:05:33.608Z,57.00
2019-06-27T15:08:10.029Z,56.80
2019-06-27T15:10:46.065Z,57.00
2019-06-27T15:13:21.422Z,56.60
2019-06-27T15:15:50.759Z,57.10
2019-06-27T15:18:28.229Z,59.50
2019-06-27T15:20:57.376Z,59.90
2019-06-27T15:23:43.039Z,60.80
2019-06-27T15:26:12.629Z,61.80
2019-06-27T15:28:48.584Z,60.30
2019-06-27T15:31:17.774Z,62.30
2019-06-27T15:33:53.997Z,63.10
2019-06-27T15:36:23.153Z,64.00
2019-06-27T15:38:59.496Z,62.70
2019-06-27T15:41:29.820Z,62.80
2019-06-27T15:43:58.971Z,62.90
2019-06-27T15:46:34.270Z,63.80
2019-06-27T15:49:03.355Z,62.60
2019-06-27T15:51:38.866Z,63.30
2019-06-27T15:54:07.987Z,63.00
2019-06-27T15:56:43.940Z,62.70
2019-06-27T15:59:13.331Z,63.20
2019-06-27T16:01:49.589Z,63.30
2019-06-27T16:04:30.748Z,63.30
2019-06-27T16:06:50.889Z,62.30
2019-06-27T16:09:27.120Z,62.90
2019-06-27T16:12:02.427Z,63.10
2019-06-27T16:14:38.558Z,62.70
2019-06-27T16:17:07.749Z,63.10
2019-06-27T16:19:43.914Z,62.50
2019-06-27T16:22:19.225Z,61.90
2019-06-27T16:25:02.092Z,62.20
2019-06-27T16:27:33.463Z,62.30
2019-06-27T16:30:09.270Z,62.80
2019-06-27T16:32:38.379Z,63.50
2019-06-27T16:35:14.817Z,63.60
2019-06-27T16:37:44.115Z,64.10
2019-06-27T16:40:20.492Z,65.00
2019-06-27T16:42:49.908Z,65.40
2019-06-27T16:45:19.223Z,64.00
2019-06-27T16:47:55.198Z,64.10
2019-06-27T16:50:24.250Z,64.10
2019-06-27T16:53:00.428Z,64.10
2019-06-27T16:55:30.164Z,64.50
2019-06-27T16:58:05.460Z,65.50
2019-06-27T17:00:35.582Z,65.60
2019-06-27T17:03:11.733Z,64.90
2019-06-27T17:05:41.513Z,65.30
2019-06-27T17:08:17.075Z,66.00
2019-06-27T17:10:53.005Z,65.90
2019-06-27T17:13:28.708Z,66.30
2019-06-27T17:15:57.871Z,66.40
2019-06-27T17:18:27.020Z,66.30
2019-06-27T17:21:02.776Z,67.20
2019-06-27T17:23:38.368Z,68.50
2019-06-27T17:26:13.825Z,67.80
2019-06-27T17:28:42.937Z,68.10
2019-06-27T17:31:18.931Z,68.50
2019-06-27T17:33:48.193Z,69.00
2019-06-27T17:36:24.379Z,68.70
2019-06-27T17:38:53.495Z,68.20
2019-06-27T17:41:31.870Z,68.30
2019-06-27T17:44:04.265Z,69.20
2019-06-27T17:46:40.543Z,69.40
2019-06-27T17:49:09.797Z,69.40
2019-06-27T17:51:45.870Z,69.60
2019-06-27T17:54:15.175Z,70.00
2019-06-27T17:56:51.541Z,69.90
2019-06-27T17:59:22.143Z,69.80
2019-06-27T18:02:00.768Z,69.90
2019-06-27T18:04:30.049Z,70.00
2019-06-27T18:07:14.348Z,70.30
2019-06-27T18:09:36.309Z,70.70
2019-06-27T18:12:18.819Z,70.90
2019-06-27T18:14:47.902Z,71.20
2019-06-27T18:17:32.913Z,70.70
2019-06-27T18:19:54.795Z,71.20
2019-06-27T18:22:30.255Z,70.90
2019-06-27T18:25:05.916Z,70.30
2019-06-27T18:27:42.143Z,70.60
2019-06-27T18:30:12.680Z,71.10
2019-06-27T18:32:41.919Z,71.00
2019-06-27T18:35:18.212Z,71.30
2019-06-27T18:37:48.572Z,71.70
2019-06-27T18:40:28.886Z,72.40
2019-06-27T18:42:58.156Z,73.00
2019-06-27T18:45:34.685Z,73.50
2019-06-27T18:48:03.858Z,74.20
2019-06-27T18:50:39.022Z,74.70
2019-06-27T18:53:08.161Z,75.20
2019-06-27T18:55:44.237Z,75.40
2019-06-27T18:58:13.343Z,75.70
2019-06-27T19:00:49.026Z,75.70
2019-06-27T19:03:18.239Z,75.70
2019-06-27T19:05:55.922Z,75.90
2019-06-27T19:08:25.289Z,76.00
2019-06-27T19:11:08.254Z,76.70
2019-06-27T19:13:37.895Z,76.40
2019-06-27T19:16:09.710Z,76.90
2019-06-27T19:18:53.183Z,77.20
2019-06-27T19:21:27.536Z,77.40
2019-06-27T19:24:31.395Z,77.60
2019-06-27T19:27:06.895Z,78.10
2019-06-27T19:29:42.911Z,78.30
2019-06-27T19:32:18.649Z,78.70
2019-06-27T19:34:47.798Z,79.30
2019-06-27T19:37:26.699Z,79.90
2019-06-27T19:39:55.900Z,80.30
2019-06-27T19:42:31.882Z,80.90
2019-06-27T19:45:03.867Z,81.20
2019-06-27T19:47:33.146Z,82.30
2019-06-27T19:50:09.416Z,81.70
2019-06-27T19:52:39.988Z,82.10
2019-06-27T19:55:16.751Z,82.40
2019-06-27T19:57:45.942Z,82.50
2019-06-27T20:00:22.332Z,83.00
2019-06-27T20:02:51.661Z,83.20
2019-06-27T20:05:33.732Z,83.30
2019-06-27T20:08:17.926Z,84.00
2019-06-27T20:10:46.418Z,84.80
2019-06-27T20:13:15.553Z,85.20
2019-06-27T20:15:51.612Z,86.00
2019-06-27T20:18:20.942Z,86.20
2019-06-27T20:20:59.856Z,86.00
2019-06-27T20:23:29.438Z,86.50
2019-06-27T20:26:11.858Z,86.70
2019-06-27T20:28:41.076Z,87.00
2019-06-27T20:31:20.770Z,88.00
2019-06-27T20:33:52.255Z,88.60
2019-06-27T20:36:27.918Z,89.40
2019-06-27T20:39:03.095Z,90.20
2019-06-27T20:41:35.279Z,90.90
2019-06-27T20:44:04.555Z,91.30
2019-06-27T20:46:42.107Z,91.80
2019-06-27T20:49:11.580Z,92.00
2019-06-27T20:51:43.900Z,92.30
2019-06-27T20:54:19.839Z,92.60
2019-06-27T20:56:50.727Z,93.20
2019-06-27T20:59:34.346Z,93.60
2019-06-27T21:02:05.928Z,94.00
2019-06-27T21:04:51.410Z,94.40
2019-06-27T21:07:29.392Z,95.00
2019-06-27T21:09:58.112Z,95.70
2019-06-27T21:12:27.399Z,96.60
2019-06-27T21:15:04.923Z,97.50
2019-06-27T21:17:36.285Z,98.50
2019-06-27T21:20:12.018Z,99.70
2019-06-27T21:22:41.287Z,99.90
2019-06-27T21:25:16.845Z,99.90
2019-06-27T21:27:52.300Z,99.90
2019-06-27T21:30:28.483Z,99.90
2019-06-27T21:32:57.637Z,99.90
2019-06-27T21:35:32.807Z,99.90
2019-06-27T21:38:02.011Z,99.90
2019-06-27T21:40:38.169Z,99.90
2019-06-27T21:43:07.519Z,99.90
2019-06-27T21:45:43.592Z,99.90
2019-06-27T21:48:15.170Z,99.90
2019-06-27T21:50:51.095Z,99.90
2019-06-27T21:53:20.251Z,99.90
2019-06-27T21:55:49.429Z,99.90
2019-06-27T21:58:24.684Z,99.90
2019-06-27T22:00:55.836Z,99.90
2019-06-27T22:09:40.450Z,99.90
2019-06-27T22:12:19.112Z,99.90
2019-06-27T22:14:48.256Z,99.90
2019-06-27T22:17:23.843Z,99.90
2019-06-27T22:20:16.269Z,99.90
2019-06-27T22:22:51.843Z,99.90
2019-06-27T22:25:21.354Z,99.90
2019-06-27T22:28:04.014Z,99.90
2019-06-27T22:30:38.786Z,99.90
2019-06-27T22:33:14.510Z,99.90
2019-06-27T22:35:43.788Z,99.90
2019-06-27T22:38:36.676Z,99.90
2019-06-27T22:41:23.857Z,99.90
2019-06-27T22:44:16.909Z,99.90
2019-06-27T22:47:23.596Z,99.90
2019-06-27T22:49:59.818Z,99.90
2019-06-27T22:52:46.676Z,99.90
2019-06-27T22:55:27.349Z,99.90
2019-06-27T22:57:56.561Z,99.90
2019-06-27T23:00:25.713Z,99.90
2019-06-27T23:03:01.472Z,99.90
2019-06-27T23:05:43.465Z,99.90
2019-06-27T23:08:12.708Z,99.90
2019-06-27T23:10:41.972Z,99.90
2019-06-27T23:13:17.870Z,99.90
2019-06-27T23:15:54.050Z,99.90
2019-06-27T23:18:23.120Z,99.90
2019-06-27T23:20:52.299Z,99.90
2019-06-27T23:23:28.314Z,99.90
2019-06-27T23:25:57.514Z,99.90
2019-06-27T23:28:32.899Z,99.90
2019-06-27T23:31:08.708Z,99.90
2019-06-27T23:33:37.811Z,99.90
2019-06-27T23:36:13.506Z,99.90
2019-06-27T23:38:42.714Z,99.90
2019-06-27T23:41:11.846Z,99.90
2019-06-27T23:43:47.605Z,99.90
2019-06-27T23:46:34.594Z,99.90
2019-06-27T23:49:10.911Z,99.90
2019-06-27T23:51:40.209Z,99.90
2019-06-27T23:54:17.850Z,99.90
2019-06-27T23:56:47.015Z,99.90
2019-06-27T23:59:22.680Z,99.90
